sensor_id;sensor_type;location;lat;lon;timestamp;temperature;humidity
23568;DHT22;11962;50.838;4.430;2023-07-13T00:00:12;18.70;99.90
23568;DHT22;11962;50.838;4.430;2023-07-13T00:02:41;18.70;99.90
23568;DHT22;11962;50.838;4.430;2023-07-13T00:05:07;18.70;99.90
23568;DHT22;11962;50.838;4.430;2023-07-13T00:07:32;18.70;99.90
23568;DHT22;11962;50.838;4.430;2023-07-13T00:09:58;18.60;99.90
23568;DHT22;11962;50.838;4.430;2023-07-13T00:12:36;18.60;99.90
23568;DHT22;11962;50.838;4.430;2023-07-13T00:15:09;18.60;99.90
23568;DHT22;11962;50.838;4.430;2023-07-13T00:17:35;18.50;99.90
23568;DHT22;11962;50.838;4.430;2023-07-13T00:20:01;18.50;99.90
23568;DHT22;11962;50.838;4.430;2023-07-13T00:22:27;18.40;99.90
23568;DHT22;11962;50.838;4.430;2023-07-13T00:24:53;18.50;99.90
23568;DHT22;11962;50.838;4.430;2023-07-13T00:27:21;18.50;99.90
23568;DHT22;11962;50.838;4.430;2023-07-13T00:29:47;18.40;99.90
23568;DHT22;11962;50.838;4.430;2023-07-13T00:32:13;18.30;99.90
23568;DHT22;11962;50.838;4.430;2023-07-13T00:34:39;18.30;99.90
23568;DHT22;11962;50.838;4.430;2023-07-13T00:37:06;18.30;99.90
23568;DHT22;11962;50.838;4.430;2023-07-13T00:39:33;18.30;99.90
23568;DHT22;11962;50.838;4.430;2023-07-13T00:42:00;18.30;99.90
23568;DHT22;11962;50.838;4.430;2023-07-13T00:44:26;18.30;99.90
23568;DHT22;11962;50.838;4.430;2023-07-13T00:46:52;18.20;99.90
23568;DHT22;11962;50.838;4.430;2023-07-13T00:49:23;18.30;99.90
23568;DHT22;11962;50.838;4.430;2023-07-13T00:51:53;18.20;99.90
23568;DHT22;11962;50.838;4.430;2023-07-13T00:54:41;18.20;99.90
23568;DHT22;11962;50.838;4.430;2023-07-13T00:57:09;18.20;99.90
23568;DHT22;11962;50.838;4.430;2023-07-13T00:59:37;18.20;99.90
23568;DHT22;11962;50.838;4.430;2023-07-13T01:02:05;18.20;99.90
23568;DHT22;11962;50.838;4.430;2023-07-13T01:04:30;18.10;99.90
23568;DHT22;11962;50.838;4.430;2023-07-13T01:06:57;18.10;99.90
23568;DHT22;11962;50.838;4.430;2023-07-13T01:09:23;18.00;99.90
23568;DHT22;11962;50.838;4.430;2023-07-13T01:11:49;18.10;99.90
23568;DHT22;11962;50.838;4.430;2023-07-13T01:14:15;18.00;99.90
23568;DHT22;11962;50.838;4.430;2023-07-13T01:16:44;18.00;99.90
23568;DHT22;11962;50.838;4.430;2023-07-13T01:21:52;17.90;99.90
23568;DHT22;11962;50.838;4.430;2023-07-13T01:24:18;17.90;99.90
23568;DHT22;11962;50.838;4.430;2023-07-13T01:26:44;17.90;99.90
23568;DHT22;11962;50.838;4.430;2023-07-13T01:29:09;17.90;99.90
23568;DHT22;11962;50.838;4.430;2023-07-13T01:31:35;18.00;99.90
23568;DHT22;11962;50.838;4.430;2023-07-13T01:34:01;18.00;99.90
23568;DHT22;11962;50.838;4.430;2023-07-13T01:36:26;17.90;99.90
23568;DHT22;11962;50.838;4.430;2023-07-13T01:38:52;17.80;99.90
23568;DHT22;11962;50.838;4.430;2023-07-13T01:41:18;17.80;99.90
23568;DHT22;11962;50.838;4.430;2023-07-13T01:43:44;17.80;99.90
23568;DHT22;11962;50.838;4.430;2023-07-13T01:46:09;17.70;99.90
23568;DHT22;11962;50.838;4.430;2023-07-13T01:48:35;17.70;99.90
23568;DHT22;11962;50.838;4.430;2023-07-13T01:51:01;17.70;99.90
23568;DHT22;11962;50.838;4.430;2023-07-13T01:53:26;17.70;99.90
23568;DHT22;11962;50.838;4.430;2023-07-13T01:55:52;17.70;99.90
23568;DHT22;11962;50.838;4.430;2023-07-13T01:58:18;17.70;99.90
23568;DHT22;11962;50.838;4.430;2023-07-13T02:00:44;17.70;99.90
23568;DHT22;11962;50.838;4.430;2023-07-13T02:03:09;17.70;99.90
23568;DHT22;11962;50.838;4.430;2023-07-13T02:05:35;17.70;99.90
23568;DHT22;11962;50.838;4.430;2023-07-13T02:08:01;17.60;99.90
23568;DHT22;11962;50.838;4.430;2023-07-13T02:10:27;17.60;99.90
23568;DHT22;11962;50.838;4.430;2023-07-13T02:12:53;17.60;99.90
23568;DHT22;11962;50.838;4.430;2023-07-13T02:15:19;17.60;99.90
23568;DHT22;11962;50.838;4.430;2023-07-13T02:17:46;17.60;99.90
23568;DHT22;11962;50.838;4.430;2023-07-13T02:20:12;17.60;99.90
23568;DHT22;11962;50.838;4.430;2023-07-13T02:22:38;17.50;99.90
23568;DHT22;11962;50.838;4.430;2023-07-13T02:25:04;17.50;99.90
23568;DHT22;11962;50.838;4.430;2023-07-13T02:27:30;17.50;99.90
23568;DHT22;11962;50.838;4.430;2023-07-13T02:29:56;17.50;99.90
23568;DHT22;11962;50.838;4.430;2023-07-13T02:32:21;17.50;99.90
23568;DHT22;11962;50.838;4.430;2023-07-13T02:34:47;17.50;99.90
23568;DHT22;11962;50.838;4.430;2023-07-13T02:37:13;17.50;99.90
23568;DHT22;11962;50.838;4.430;2023-07-13T02:39:39;17.50;99.90
23568;DHT22;11962;50.838;4.430;2023-07-13T02:42:05;17.40;99.90
23568;DHT22;11962;50.838;4.430;2023-07-13T02:44:31;17.40;99.90
23568;DHT22;11962;50.838;4.430;2023-07-13T02:46:57;17.40;99.90
23568;DHT22;11962;50.838;4.430;2023-07-13T02:49:23;17.30;99.90
23568;DHT22;11962;50.838;4.430;2023-07-13T02:51:48;17.30;99.90
23568;DHT22;11962;50.838;4.430;2023-07-13T02:54:14;17.30;99.90
23568;DHT22;11962;50.838;4.430;2023-07-13T02:56:40;17.30;99.90
23568;DHT22;11962;50.838;4.430;2023-07-13T02:59:06;17.30;99.90
23568;DHT22;11962;50.838;4.430;2023-07-13T03:01:32;17.20;99.90
23568;DHT22;11962;50.838;4.430;2023-07-13T03:04:00;17.20;99.90
23568;DHT22;11962;50.838;4.430;2023-07-13T03:06:26;17.20;99.90
23568;DHT22;11962;50.838;4.430;2023-07-13T03:08:56;17.20;99.90
23568;DHT22;11962;50.838;4.430;2023-07-13T03:11:22;17.20;99.90
23568;DHT22;11962;50.838;4.430;2023-07-13T03:13:48;17.20;99.90
23568;DHT22;11962;50.838;4.430;2023-07-13T03:16:14;17.10;99.90
23568;DHT22;11962;50.838;4.430;2023-07-13T03:18:43;17.10;99.90
23568;DHT22;11962;50.838;4.430;2023-07-13T03:21:10;17.10;99.90
23568;DHT22;11962;50.838;4.430;2023-07-13T03:23:36;17.10;99.90
23568;DHT22;11962;50.838;4.430;2023-07-13T03:28:35;17.10;99.90
23568;DHT22;11962;50.838;4.430;2023-07-13T03:31:03;17.10;99.90
23568;DHT22;11962;50.838;4.430;2023-07-13T03:33:29;17.10;99.90
23568;DHT22;11962;50.838;4.430;2023-07-13T03:35:55;17.10;99.90
23568;DHT22;11962;50.838;4.430;2023-07-13T03:38:21;17.10;99.90
23568;DHT22;11962;50.838;4.430;2023-07-13T03:40:47;17.10;99.90
23568;DHT22;11962;50.838;4.430;2023-07-13T03:43:12;17.10;99.90
23568;DHT22;11962;50.838;4.430;2023-07-13T03:45:38;17.10;99.90
23568;DHT22;11962;50.838;4.430;2023-07-13T03:48:04;17.10;99.90
23568;DHT22;11962;50.838;4.430;2023-07-13T03:50:31;17.10;99.90
23568;DHT22;11962;50.838;4.430;2023-07-13T03:52:57;17.10;99.90
23568;DHT22;11962;50.838;4.430;2023-07-13T03:55:23;17.10;99.90
23568;DHT22;11962;50.838;4.430;2023-07-13T03:57:58;17.20;99.90
23568;DHT22;11962;50.838;4.430;2023-07-13T04:00:24;17.30;99.90
23568;DHT22;11962;50.838;4.430;2023-07-13T04:02:50;17.30;99.90
23568;DHT22;11962;50.838;4.430;2023-07-13T04:05:16;17.30;99.90
23568;DHT22;11962;50.838;4.430;2023-07-13T04:07:42;17.40;99.90
23568;DHT22;11962;50.838;4.430;2023-07-13T04:10:08;17.50;99.90
23568;DHT22;11962;50.838;4.430;2023-07-13T04:12:34;17.50;99.90
23568;DHT22;11962;50.838;4.430;2023-07-13T04:14:59;17.60;99.90
23568;DHT22;11962;50.838;4.430;2023-07-13T04:17:25;17.70;99.90
23568;DHT22;11962;50.838;4.430;2023-07-13T04:19:51;17.70;99.90
23568;DHT22;11962;50.838;4.430;2023-07-13T04:22:16;17.80;99.90
23568;DHT22;11962;50.838;4.430;2023-07-13T04:24:42;17.90;99.90
23568;DHT22;11962;50.838;4.430;2023-07-13T04:27:09;17.90;99.90
23568;DHT22;11962;50.838;4.430;2023-07-13T04:29:34;17.90;99.90
23568;DHT22;11962;50.838;4.430;2023-07-13T04:32:00;17.90;99.90
23568;DHT22;11962;50.838;4.430;2023-07-13T04:34:26;18.00;99.90
23568;DHT22;11962;50.838;4.430;2023-07-13T04:36:52;18.10;99.90
23568;DHT22;11962;50.838;4.430;2023-07-13T04:39:18;18.10;99.90
23568;DHT22;11962;50.838;4.430;2023-07-13T04:41:43;18.10;99.90
23568;DHT22;11962;50.838;4.430;2023-07-13T04:44:09;18.20;99.90
23568;DHT22;11962;50.838;4.430;2023-07-13T04:46:35;18.20;99.90
23568;DHT22;11962;50.838;4.430;2023-07-13T04:49:00;18.20;99.90
23568;DHT22;11962;50.838;4.430;2023-07-13T04:51:28;18.40;99.90
23568;DHT22;11962;50.838;4.430;2023-07-13T04:53:54;18.40;99.90
23568;DHT22;11962;50.838;4.430;2023-07-13T04:56:20;18.40;99.90
23568;DHT22;11962;50.838;4.430;2023-07-13T04:58:46;18.40;99.90
23568;DHT22;11962;50.838;4.430;2023-07-13T05:01:11;18.50;99.90
23568;DHT22;11962;50.838;4.430;2023-07-13T05:03:39;18.50;99.90
23568;DHT22;11962;50.838;4.430;2023-07-13T05:06:06;18.50;99.90
23568;DHT22;11962;50.838;4.430;2023-07-13T05:08:32;18.60;99.90
23568;DHT22;11962;50.838;4.430;2023-07-13T05:11:03;18.60;99.90
23568;DHT22;11962;50.838;4.430;2023-07-13T05:13:29;18.60;99.90
23568;DHT22;11962;50.838;4.430;2023-07-13T05:16:04;18.60;99.90
23568;DHT22;11962;50.838;4.430;2023-07-13T05:18:31;18.70;99.90
23568;DHT22;11962;50.838;4.430;2023-07-13T05:20:58;18.70;99.90
23568;DHT22;11962;50.838;4.430;2023-07-13T05:23:24;18.80;99.90
23568;DHT22;11962;50.838;4.430;2023-07-13T05:25:50;18.90;99.90
23568;DHT22;11962;50.838;4.430;2023-07-13T05:28:16;18.90;99.90
23568;DHT22;11962;50.838;4.430;2023-07-13T05:30:46;18.90;99.90
23568;DHT22;11962;50.838;4.430;2023-07-13T05:33:12;19.00;99.90
23568;DHT22;11962;50.838;4.430;2023-07-13T05:35:38;19.10;99.90
23568;DHT22;11962;50.838;4.430;2023-07-13T05:38:04;19.10;99.90
23568;DHT22;11962;50.838;4.430;2023-07-13T05:40:29;19.20;99.90
23568;DHT22;11962;50.838;4.430;2023-07-13T05:42:55;19.30;99.90
23568;DHT22;11962;50.838;4.430;2023-07-13T05:45:21;19.40;99.90
23568;DHT22;11962;50.838;4.430;2023-07-13T05:47:46;19.40;99.90
23568;DHT22;11962;50.838;4.430;2023-07-13T05:50:12;19.40;99.90
23568;DHT22;11962;50.838;4.430;2023-07-13T05:52:38;19.50;99.90
23568;DHT22;11962;50.838;4.430;2023-07-13T05:55:04;19.50;99.90
23568;DHT22;11962;50.838;4.430;2023-07-13T05:57:30;19.60;99.90
23568;DHT22;11962;50.838;4.430;2023-07-13T05:59:57;19.70;99.90
23568;DHT22;11962;50.838;4.430;2023-07-13T06:02:22;19.60;99.90
23568;DHT22;11962;50.838;4.430;2023-07-13T06:04:48;19.60;99.90
23568;DHT22;11962;50.838;4.430;2023-07-13T06:07:15;19.60;99.90
23568;DHT22;11962;50.838;4.430;2023-07-13T06:09:40;19.70;99.90
23568;DHT22;11962;50.838;4.430;2023-07-13T06:12:06;19.80;99.90
23568;DHT22;11962;50.838;4.430;2023-07-13T06:14:32;19.90;99.90
23568;DHT22;11962;50.838;4.430;2023-07-13T06:16:58;20.00;99.90
23568;DHT22;11962;50.838;4.430;2023-07-13T06:19:24;20.00;99.90
23568;DHT22;11962;50.838;4.430;2023-07-13T06:21:50;20.10;99.90
23568;DHT22;11962;50.838;4.430;2023-07-13T06:24:15;20.10;99.90
23568;DHT22;11962;50.838;4.430;2023-07-13T06:26:41;20.00;99.90
23568;DHT22;11962;50.838;4.430;2023-07-13T06:29:07;20.00;99.90
23568;DHT22;11962;50.838;4.430;2023-07-13T06:31:33;20.20;99.90
23568;DHT22;11962;50.838;4.430;2023-07-13T06:33:59;20.30;99.90
23568;DHT22;11962;50.838;4.430;2023-07-13T06:36:24;20.60;99.90
23568;DHT22;11962;50.838;4.430;2023-07-13T06:38:50;20.70;99.90
23568;DHT22;11962;50.838;4.430;2023-07-13T06:41:16;20.90;99.90
23568;DHT22;11962;50.838;4.430;2023-07-13T06:43:42;21.10;99.90
23568;DHT22;11962;50.838;4.430;2023-07-13T06:46:07;21.30;99.90
23568;DHT22;11962;50.838;4.430;2023-07-13T06:48:33;21.60;99.90
23568;DHT22;11962;50.838;4.430;2023-07-13T06:50:59;21.90;99.90
23568;DHT22;11962;50.838;4.430;2023-07-13T06:53:25;22.10;99.90
23568;DHT22;11962;50.838;4.430;2023-07-13T06:55:50;22.40;99.90
23568;DHT22;11962;50.838;4.430;2023-07-13T06:58:17;22.70;99.90
23568;DHT22;11962;50.838;4.430;2023-07-13T07:00:43;22.90;99.90
23568;DHT22;11962;50.838;4.430;2023-07-13T07:03:09;23.00;99.90
23568;DHT22;11962;50.838;4.430;2023-07-13T07:05:35;23.10;99.90
23568;DHT22;11962;50.838;4.430;2023-07-13T07:08:01;23.30;99.90
23568;DHT22;11962;50.838;4.430;2023-07-13T07:10:30;23.40;99.90
23568;DHT22;11962;50.838;4.430;2023-07-13T07:12:56;23.50;99.90
23568;DHT22;11962;50.838;4.430;2023-07-13T07:15:21;23.80;99.90
23568;DHT22;11962;50.838;4.430;2023-07-13T07:17:47;24.00;99.90
23568;DHT22;11962;50.838;4.430;2023-07-13T07:20:13;24.10;99.90
23568;DHT22;11962;50.838;4.430;2023-07-13T07:22:38;24.40;99.90
23568;DHT22;11962;50.838;4.430;2023-07-13T07:25:04;24.60;99.90
23568;DHT22;11962;50.838;4.430;2023-07-13T07:27:30;24.90;99.90
23568;DHT22;11962;50.838;4.430;2023-07-13T07:29:56;25.10;99.90
23568;DHT22;11962;50.838;4.430;2023-07-13T07:32:23;25.40;99.90
23568;DHT22;11962;50.838;4.430;2023-07-13T07:34:49;25.70;99.90
23568;DHT22;11962;50.838;4.430;2023-07-13T07:37:15;26.20;99.90
23568;DHT22;11962;50.838;4.430;2023-07-13T07:39:42;27.50;97.80
23568;DHT22;11962;50.838;4.430;2023-07-13T07:42:08;28.90;93.60
23568;DHT22;11962;50.838;4.430;2023-07-13T07:44:34;30.40;89.30
23568;DHT22;11962;50.838;4.430;2023-07-13T07:47:00;31.80;79.80
23568;DHT22;11962;50.838;4.430;2023-07-13T07:49:26;31.50;77.80
23568;DHT22;11962;50.838;4.430;2023-07-13T07:51:52;31.70;74.80
23568;DHT22;11962;50.838;4.430;2023-07-13T07:54:18;31.40;73.90
23568;DHT22;11962;50.838;4.430;2023-07-13T07:56:44;32.30;71.80
23568;DHT22;11962;50.838;4.430;2023-07-13T07:59:10;33.20;68.00
23568;DHT22;11962;50.838;4.430;2023-07-13T08:01:36;33.80;64.70
23568;DHT22;11962;50.838;4.430;2023-07-13T08:04:02;34.70;62.30
23568;DHT22;11962;50.838;4.430;2023-07-13T08:06:28;35.80;58.80
23568;DHT22;11962;50.838;4.430;2023-07-13T08:08:54;37.50;55.70
23568;DHT22;11962;50.838;4.430;2023-07-13T08:11:20;38.20;52.70
23568;DHT22;11962;50.838;4.430;2023-07-13T08:13:46;38.30;52.40
23568;DHT22;11962;50.838;4.430;2023-07-13T08:16:12;38.50;51.20
23568;DHT22;11962;50.838;4.430;2023-07-13T08:18:38;38.00;50.60
23568;DHT22;11962;50.838;4.430;2023-07-13T08:21:05;37.30;51.50
23568;DHT22;11962;50.838;4.430;2023-07-13T08:23:31;36.50;52.50
23568;DHT22;11962;50.838;4.430;2023-07-13T08:25:57;35.80;53.50
23568;DHT22;11962;50.838;4.430;2023-07-13T08:28:24;35.40;54.00
23568;DHT22;11962;50.838;4.430;2023-07-13T08:30:50;35.90;54.40
23568;DHT22;11962;50.838;4.430;2023-07-13T08:33:17;36.40;52.00
23568;DHT22;11962;50.838;4.430;2023-07-13T08:35:46;35.40;52.90
23568;DHT22;11962;50.838;4.430;2023-07-13T08:38:12;35.00;54.10
23568;DHT22;11962;50.838;4.430;2023-07-13T08:40:39;33.90;54.80
23568;DHT22;11962;50.838;4.430;2023-07-13T08:43:05;32.90;56.80
23568;DHT22;11962;50.838;4.430;2023-07-13T08:48:32;33.50;56.20
23568;DHT22;11962;50.838;4.430;2023-07-13T08:53:49;34.50;54.80
23568;DHT22;11962;50.838;4.430;2023-07-13T08:56:26;34.50;54.50
23568;DHT22;11962;50.838;4.430;2023-07-13T08:59:02;34.50;54.80
23568;DHT22;11962;50.838;4.430;2023-07-13T09:04:09;35.20;52.90
23568;DHT22;11962;50.838;4.430;2023-07-13T09:06:49;34.60;54.20
23568;DHT22;11962;50.838;4.430;2023-07-13T09:14:57;34.90;52.50
23568;DHT22;11962;50.838;4.430;2023-07-13T09:17:28;35.30;52.80
23568;DHT22;11962;50.838;4.430;2023-07-13T09:22:49;38.20;48.90
23568;DHT22;11962;50.838;4.430;2023-07-13T09:25:35;38.50;47.80
23568;DHT22;11962;50.838;4.430;2023-07-13T09:28:28;39.10;47.30
23568;DHT22;11962;50.838;4.430;2023-07-13T09:31:06;40.00;46.20
23568;DHT22;11962;50.838;4.430;2023-07-13T09:33:33;40.10;44.90
23568;DHT22;11962;50.838;4.430;2023-07-13T09:36:01;39.80;45.10
23568;DHT22;11962;50.838;4.430;2023-07-13T09:38:29;37.90;46.30
23568;DHT22;11962;50.838;4.430;2023-07-13T09:41:17;36.90;47.50
23568;DHT22;11962;50.838;4.430;2023-07-13T09:44:10;37.40;48.00
23568;DHT22;11962;50.838;4.430;2023-07-13T09:46:36;38.60;47.00
23568;DHT22;11962;50.838;4.430;2023-07-13T09:49:02;39.90;45.40
23568;DHT22;11962;50.838;4.430;2023-07-13T09:51:28;40.60;44.50
23568;DHT22;11962;50.838;4.430;2023-07-13T09:53:53;40.40;43.90
23568;DHT22;11962;50.838;4.430;2023-07-13T09:56:37;39.90;44.40
23568;DHT22;11962;50.838;4.430;2023-07-13T09:59:03;39.70;44.20
23568;DHT22;11962;50.838;4.430;2023-07-13T10:01:37;39.80;44.70
23568;DHT22;11962;50.838;4.430;2023-07-13T10:04:11;40.60;43.60
23568;DHT22;11962;50.838;4.430;2023-07-13T10:06:39;41.40;42.90
23568;DHT22;11962;50.838;4.430;2023-07-13T10:09:09;42.20;41.60
23568;DHT22;11962;50.838;4.430;2023-07-13T10:11:36;41.70;41.30
23568;DHT22;11962;50.838;4.430;2023-07-13T10:14:17;41.60;41.40
23568;DHT22;11962;50.838;4.430;2023-07-13T10:16:46;42.10;40.60
23568;DHT22;11962;50.838;4.430;2023-07-13T10:19:16;42.30;40.20
23568;DHT22;11962;50.838;4.430;2023-07-13T10:21:59;42.50;39.70
23568;DHT22;11962;50.838;4.430;2023-07-13T10:24:30;41.80;40.70
23568;DHT22;11962;50.838;4.430;2023-07-13T10:27:19;41.70;41.00
23568;DHT22;11962;50.838;4.430;2023-07-13T10:29:49;41.80;41.10
23568;DHT22;11962;50.838;4.430;2023-07-13T10:32:19;41.30;41.30
23568;DHT22;11962;50.838;4.430;2023-07-13T10:34:47;40.30;42.70
23568;DHT22;11962;50.838;4.430;2023-07-13T10:37:33;40.10;42.50
23568;DHT22;11962;50.838;4.430;2023-07-13T10:40:03;39.80;42.40
23568;DHT22;11962;50.838;4.430;2023-07-13T10:42:38;40.20;42.20
23568;DHT22;11962;50.838;4.430;2023-07-13T10:45:17;41.10;41.60
23568;DHT22;11962;50.838;4.430;2023-07-13T10:47:44;41.50;40.10
23568;DHT22;11962;50.838;4.430;2023-07-13T10:50:21;40.60;41.10
23568;DHT22;11962;50.838;4.430;2023-07-13T10:52:52;39.10;42.80
23568;DHT22;11962;50.838;4.430;2023-07-13T11:01:02;34.90;47.80
23568;DHT22;11962;50.838;4.430;2023-07-13T11:03:30;34.10;49.30
23568;DHT22;11962;50.838;4.430;2023-07-13T11:06:12;34.60;49.30
23568;DHT22;11962;50.838;4.430;2023-07-13T11:11:44;36.30;46.90
23568;DHT22;11962;50.838;4.430;2023-07-13T11:14:36;37.20;45.20
23568;DHT22;11962;50.838;4.430;2023-07-13T11:22:49;36.20;46.40
23568;DHT22;11962;50.838;4.430;2023-07-13T11:25:28;35.50;46.30
23568;DHT22;11962;50.838;4.430;2023-07-13T11:36:07;37.60;45.00
23568;DHT22;11962;50.838;4.430;2023-07-13T11:38:42;38.60;44.00
23568;DHT22;11962;50.838;4.430;2023-07-13T11:41:29;38.60;43.50
23568;DHT22;11962;50.838;4.430;2023-07-13T11:44:06;37.10;44.40
23568;DHT22;11962;50.838;4.430;2023-07-13T11:46:32;35.30;46.80
23568;DHT22;11962;50.838;4.430;2023-07-13T11:48:58;34.10;48.50
23568;DHT22;11962;50.838;4.430;2023-07-13T11:51:29;33.30;50.00
23568;DHT22;11962;50.838;4.430;2023-07-13T11:54:03;32.40;50.50
23568;DHT22;11962;50.838;4.430;2023-07-13T11:56:30;31.90;51.70
23568;DHT22;11962;50.838;4.430;2023-07-13T11:58:59;31.40;53.10
23568;DHT22;11962;50.838;4.430;2023-07-13T12:01:31;31.20;53.70
23568;DHT22;11962;50.838;4.430;2023-07-13T12:04:02;30.70;54.50
23568;DHT22;11962;50.838;4.430;2023-07-13T12:06:31;30.60;54.90
23568;DHT22;11962;50.838;4.430;2023-07-13T12:09:02;30.20;55.40
23568;DHT22;11962;50.838;4.430;2023-07-13T12:11:29;30.00;56.00
23568;DHT22;11962;50.838;4.430;2023-07-13T12:13:56;29.70;56.70
23568;DHT22;11962;50.838;4.430;2023-07-13T12:16:29;29.60;56.40
23568;DHT22;11962;50.838;4.430;2023-07-13T12:18:56;29.30;56.80
23568;DHT22;11962;50.838;4.430;2023-07-13T12:21:33;29.00;57.20
23568;DHT22;11962;50.838;4.430;2023-07-13T12:24:00;28.80;57.70
23568;DHT22;11962;50.838;4.430;2023-07-13T12:26:28;28.70;57.90
23568;DHT22;11962;50.838;4.430;2023-07-13T12:28:55;28.70;57.80
23568;DHT22;11962;50.838;4.430;2023-07-13T12:34:13;28.80;58.50
23568;DHT22;11962;50.838;4.430;2023-07-13T12:36:52;28.90;58.30
23568;DHT22;11962;50.838;4.430;2023-07-13T12:44:42;27.50;64.50
23568;DHT22;11962;50.838;4.430;2023-07-13T12:47:13;27.30;67.40
23568;DHT22;11962;50.838;4.430;2023-07-13T12:49:48;27.30;68.20
23568;DHT22;11962;50.838;4.430;2023-07-13T12:52:21;27.00;69.20
23568;DHT22;11962;50.838;4.430;2023-07-13T12:55:02;26.90;73.30
23568;DHT22;11962;50.838;4.430;2023-07-13T12:57:30;26.80;76.10
23568;DHT22;11962;50.838;4.430;2023-07-13T12:59:56;26.60;79.30
23568;DHT22;11962;50.838;4.430;2023-07-13T13:02:29;26.30;81.50
23568;DHT22;11962;50.838;4.430;2023-07-13T13:04:58;26.20;83.50
23568;DHT22;11962;50.838;4.430;2023-07-13T13:07:25;25.90;84.40
23568;DHT22;11962;50.838;4.430;2023-07-13T13:09:51;25.60;85.70
23568;DHT22;11962;50.838;4.430;2023-07-13T13:12:20;25.40;87.50
23568;DHT22;11962;50.838;4.430;2023-07-13T13:14:46;25.50;89.60
23568;DHT22;11962;50.838;4.430;2023-07-13T13:17:25;25.70;88.00
23568;DHT22;11962;50.838;4.430;2023-07-13T13:19:53;26.10;88.00
23568;DHT22;11962;50.838;4.430;2023-07-13T13:22:20;26.50;83.50
23568;DHT22;11962;50.838;4.430;2023-07-13T13:24:46;26.90;81.90
23568;DHT22;11962;50.838;4.430;2023-07-13T13:27:22;27.20;81.40
23568;DHT22;11962;50.838;4.430;2023-07-13T13:29:50;27.50;81.40
23568;DHT22;11962;50.838;4.430;2023-07-13T13:32:17;27.50;78.40
23568;DHT22;11962;50.838;4.430;2023-07-13T13:34:44;27.60;78.70
23568;DHT22;11962;50.838;4.430;2023-07-13T13:37:19;27.70;78.10
23568;DHT22;11962;50.838;4.430;2023-07-13T13:39:45;28.00;77.20
23568;DHT22;11962;50.838;4.430;2023-07-13T13:42:12;28.20;75.50
23568;DHT22;11962;50.838;4.430;2023-07-13T13:44:38;28.50;73.60
23568;DHT22;11962;50.838;4.430;2023-07-13T13:47:04;28.70;73.30
23568;DHT22;11962;50.838;4.430;2023-07-13T13:49:30;29.00;72.70
23568;DHT22;11962;50.838;4.430;2023-07-13T13:51:56;29.20;70.30
23568;DHT22;11962;50.838;4.430;2023-07-13T13:54:23;29.10;67.60
23568;DHT22;11962;50.838;4.430;2023-07-13T13:56:52;28.80;69.40
23568;DHT22;11962;50.838;4.430;2023-07-13T13:59:18;28.70;68.50
23568;DHT22;11962;50.838;4.430;2023-07-13T14:01:46;28.80;69.30
23568;DHT22;11962;50.838;4.430;2023-07-13T14:04:19;28.90;68.70
23568;DHT22;11962;50.838;4.430;2023-07-13T14:06:46;29.00;67.60
23568;DHT22;11962;50.838;4.430;2023-07-13T14:09:15;29.00;68.40
23568;DHT22;11962;50.838;4.430;2023-07-13T14:11:42;28.90;68.30
23568;DHT22;11962;50.838;4.430;2023-07-13T14:14:20;28.80;67.40
23568;DHT22;11962;50.838;4.430;2023-07-13T14:16:47;28.70;66.00
23568;DHT22;11962;50.838;4.430;2023-07-13T14:19:19;28.50;67.00
23568;DHT22;11962;50.838;4.430;2023-07-13T14:21:44;28.30;67.40
23568;DHT22;11962;50.838;4.430;2023-07-13T14:24:10;28.20;67.10
23568;DHT22;11962;50.838;4.430;2023-07-13T14:26:40;28.10;67.90
23568;DHT22;11962;50.838;4.430;2023-07-13T14:29:15;27.90;68.80
23568;DHT22;11962;50.838;4.430;2023-07-13T14:31:42;27.70;69.80
23568;DHT22;11962;50.838;4.430;2023-07-13T14:34:10;27.50;69.60
23568;DHT22;11962;50.838;4.430;2023-07-13T14:36:41;27.30;70.80
23568;DHT22;11962;50.838;4.430;2023-07-13T14:39:20;27.30;71.40
23568;DHT22;11962;50.838;4.430;2023-07-13T14:41:50;27.00;71.30
23568;DHT22;11962;50.838;4.430;2023-07-13T14:44:17;26.80;72.80
23568;DHT22;11962;50.838;4.430;2023-07-13T14:46:45;26.70;73.00
23568;DHT22;11962;50.838;4.430;2023-07-13T14:52:01;26.70;73.00
23568;DHT22;11962;50.838;4.430;2023-07-13T14:54:29;26.70;72.40
23568;DHT22;11962;50.838;4.430;2023-07-13T14:56:55;27.00;70.60
23568;DHT22;11962;50.838;4.430;2023-07-13T14:59:20;27.10;69.20
23568;DHT22;11962;50.838;4.430;2023-07-13T15:01:48;27.10;69.10
23568;DHT22;11962;50.838;4.430;2023-07-13T15:04:14;27.00;69.40
23568;DHT22;11962;50.838;4.430;2023-07-13T15:06:59;27.00;70.20
23568;DHT22;11962;50.838;4.430;2023-07-13T15:09:27;27.10;69.70
23568;DHT22;11962;50.838;4.430;2023-07-13T15:11:55;27.20;69.80
23568;DHT22;11962;50.838;4.430;2023-07-13T15:14:21;27.30;69.70
23568;DHT22;11962;50.838;4.430;2023-07-13T15:16:52;27.30;70.20
23568;DHT22;11962;50.838;4.430;2023-07-13T15:19:19;27.40;68.70
23568;DHT22;11962;50.838;4.430;2023-07-13T15:21:47;27.50;68.90
23568;DHT22;11962;50.838;4.430;2023-07-13T15:24:13;27.60;68.50
23568;DHT22;11962;50.838;4.430;2023-07-13T15:26:39;27.60;68.30
23568;DHT22;11962;50.838;4.430;2023-07-13T15:29:05;27.60;68.70
23568;DHT22;11962;50.838;4.430;2023-07-13T15:31:32;27.50;68.30
23568;DHT22;11962;50.838;4.430;2023-07-13T15:33:59;27.40;68.10
23568;DHT22;11962;50.838;4.430;2023-07-13T15:36:26;27.40;68.60
23568;DHT22;11962;50.838;4.430;2023-07-13T15:38:53;27.30;68.10
23568;DHT22;11962;50.838;4.430;2023-07-13T15:41:24;27.30;67.80
23568;DHT22;11962;50.838;4.430;2023-07-13T15:43:55;27.10;67.40
23568;DHT22;11962;50.838;4.430;2023-07-13T15:46:23;27.10;68.50
23568;DHT22;11962;50.838;4.430;2023-07-13T15:48:50;27.10;68.30
23568;DHT22;11962;50.838;4.430;2023-07-13T15:51:23;27.10;67.80
23568;DHT22;11962;50.838;4.430;2023-07-13T15:53:52;27.10;67.90
23568;DHT22;11962;50.838;4.430;2023-07-13T15:56:24;27.10;67.50
23568;DHT22;11962;50.838;4.430;2023-07-13T15:58:51;27.00;66.60
23568;DHT22;11962;50.838;4.430;2023-07-13T16:01:18;27.00;67.00
23568;DHT22;11962;50.838;4.430;2023-07-13T16:03:46;26.90;67.00
23568;DHT22;11962;50.838;4.430;2023-07-13T16:06:16;26.90;67.00
23568;DHT22;11962;50.838;4.430;2023-07-13T16:08:44;26.90;67.80
23568;DHT22;11962;50.838;4.430;2023-07-13T16:11:31;26.80;67.90
23568;DHT22;11962;50.838;4.430;2023-07-13T16:13:58;26.90;67.80
23568;DHT22;11962;50.838;4.430;2023-07-13T16:16:30;26.90;66.50
23568;DHT22;11962;50.838;4.430;2023-07-13T16:18:58;26.90;66.30
23568;DHT22;11962;50.838;4.430;2023-07-13T16:21:32;26.80;66.10
23568;DHT22;11962;50.838;4.430;2023-07-13T16:24:02;26.90;66.30
23568;DHT22;11962;50.838;4.430;2023-07-13T16:26:36;26.90;65.60
23568;DHT22;11962;50.838;4.430;2023-07-13T16:29:12;26.90;65.60
23568;DHT22;11962;50.838;4.430;2023-07-13T16:31:38;26.70;66.20